createdAt,value
2022-12-22T00:10:10.934Z,3.03
2022-12-22T00:15:13.676Z,2.50
2022-12-22T00:20:20.486Z,2.90
2022-12-22T00:25:40.040Z,2.83
2022-12-22T00:30:42.791Z,2.73
2022-12-22T00:36:06.194Z,2.83
2022-12-22T00:41:42.123Z,2.93
2022-12-22T00:47:48.977Z,2.37
2022-12-22T00:53:04.149Z,3.10
2022-12-22T00:59:46.564Z,2.93
2022-12-22T01:17:21.099Z,3.23
2022-12-22T01:22:30.482Z,3.40
2022-12-22T01:28:21.942Z,3.80
2022-12-22T01:34:14.467Z,4.17
2022-12-22T01:39:25.825Z,4.27
2022-12-22T01:44:46.633Z,3.23
2022-12-22T01:55:45.303Z,3.10
2022-12-22T02:00:51.896Z,2.97
2022-12-22T02:06:06.731Z,3.00
2022-12-22T02:11:47.383Z,2.87
2022-12-22T02:17:03.740Z,2.50
2022-12-22T02:22:41.175Z,3.20
2022-12-22T02:27:48.415Z,3.13
2022-12-22T02:32:52.685Z,2.90
2022-12-22T02:38:22.466Z,3.70
2022-12-22T02:43:59.656Z,4.30
2022-12-22T02:49:36.059Z,5.17
2022-12-22T02:54:55.084Z,7.77
2022-12-22T03:00:30.107Z,8.07
2022-12-22T03:06:09.149Z,8.27
2022-12-22T03:11:14.126Z,8.20
2022-12-22T03:16:21.313Z,8.07
2022-12-22T03:21:23.093Z,8.97
2022-12-22T03:26:08.707Z,8.57
2022-12-22T03:30:59.254Z,8.47
2022-12-22T03:35:45.590Z,7.93
2022-12-22T03:40:33.030Z,8.20
2022-12-22T03:45:37.580Z,8.80
2022-12-22T03:50:25.011Z,9.10
2022-12-22T03:55:15.380Z,8.63
2022-12-22T04:00:00.227Z,9.07
2022-12-22T04:04:48.115Z,9.90
2022-12-22T04:09:37.032Z,9.87
2022-12-22T04:14:33.913Z,10.17
2022-12-22T04:19:48.808Z,10.10
2022-12-22T04:24:36.834Z,10.47
2022-12-22T04:29:21.178Z,9.93
2022-12-22T04:34:11.382Z,9.67
2022-12-22T04:38:58.031Z,10.57
2022-12-22T04:43:45.233Z,8.97
2022-12-22T04:48:32.448Z,9.73
2022-12-22T04:53:21.918Z,9.63
2022-12-22T04:58:07.752Z,9.77
2022-12-22T05:03:01.711Z,10.60
2022-12-22T05:07:47.149Z,10.03
2022-12-22T05:12:50.324Z,10.13
2022-12-22T05:17:39.435Z,9.90
2022-12-22T05:22:23.461Z,10.57
2022-12-22T05:27:15.271Z,9.53
2022-12-22T05:32:06.604Z,9.80
2022-12-22T05:37:23.465Z,10.07
2022-12-22T05:42:39.983Z,10.17
2022-12-22T05:47:31.562Z,10.10
2022-12-22T05:52:33.790Z,10.43
2022-12-22T05:57:19.776Z,10.77
2022-12-22T06:02:08.140Z,9.40
2022-12-22T06:06:58.695Z,11.70
2022-12-22T06:11:57.723Z,10.77
2022-12-22T06:17:24.425Z,11.83
2022-12-22T06:22:24.394Z,11.97
2022-12-22T06:27:16.111Z,11.17
2022-12-22T06:32:01.831Z,10.47
2022-12-22T06:37:35.414Z,9.83
2022-12-22T07:11:02.273Z,3.70
2022-12-22T07:15:55.533Z,3.60
2022-12-22T07:20:50.648Z,6.37
2022-12-22T07:25:38.140Z,3.90
2022-12-22T07:30:26.336Z,3.10
2022-12-22T07:35:30.477Z,4.00
2022-12-22T07:40:17.540Z,3.30
2022-12-22T07:50:53.179Z,3.30
2022-12-22T07:55:44.442Z,4.20
2022-12-22T08:00:32.198Z,3.30
2022-12-22T08:05:19.779Z,3.30
2022-12-22T08:10:10.008Z,2.77
2022-12-22T08:14:55.527Z,2.77
2022-12-22T08:19:58.457Z,2.70
2022-12-22T08:24:54.458Z,2.30
2022-12-22T08:29:56.973Z,2.53
2022-12-22T08:34:41.228Z,3.10
2022-12-22T08:39:31.897Z,1.90
2022-12-22T08:44:16.058Z,1.80
2022-12-22T08:49:05.690Z,1.80
2022-12-22T08:54:07.932Z,1.60
2022-12-22T08:58:55.083Z,1.67
2022-12-22T09:04:02.014Z,1.20
2022-12-22T09:08:49.158Z,1.33
2022-12-22T09:13:36.207Z,1.20
2022-12-22T09:18:23.278Z,1.20
2022-12-22T09:23:16.048Z,1.00
2022-12-22T09:28:04.073Z,1.40
2022-12-22T09:32:48.489Z,1.03
2022-12-22T09:37:36.114Z,1.10
2022-12-22T09:42:30.101Z,1.30
2022-12-22T09:47:27.567Z,1.10
2022-12-22T09:52:48.805Z,1.00
2022-12-22T09:57:35.947Z,1.10
2022-12-22T10:02:38.303Z,1.23
2022-12-22T10:07:42.389Z,0.90
2022-12-22T10:12:36.028Z,1.00
2022-12-22T10:17:23.103Z,1.10
2022-12-22T10:22:30.060Z,0.87
2022-12-22T10:27:13.760Z,0.60
2022-12-22T10:32:03.984Z,0.50
2022-12-22T10:36:49.628Z,0.70
2022-12-22T10:41:41.435Z,0.70
2022-12-22T10:46:44.049Z,0.70
2022-12-22T10:51:28.097Z,0.80
2022-12-22T10:56:30.921Z,0.60
2022-12-22T11:01:35.098Z,0.53
2022-12-22T11:06:45.720Z,0.50
2022-12-22T11:11:41.523Z,0.60
2022-12-22T11:17:09.008Z,0.60
2022-12-22T11:22:29.942Z,0.70
2022-12-22T11:27:45.918Z,0.60
2022-12-22T11:33:03.690Z,0.50
2022-12-22T11:38:11.798Z,0.43
2022-12-22T11:43:46.017Z,0.60
2022-12-22T11:55:56.521Z,0.87
2022-12-22T12:07:33.003Z,0.63
2022-12-22T12:12:46.750Z,0.63
2022-12-22T12:18:13.939Z,0.60
2022-12-22T12:23:15.490Z,0.57
2022-12-22T12:28:32.897Z,0.60
2022-12-22T12:39:08.079Z,0.70
2022-12-22T12:44:02.321Z,0.63
2022-12-22T12:48:47.163Z,0.60
2022-12-22T12:54:21.854Z,0.60
2022-12-22T13:00:00.887Z,0.60
2022-12-22T13:18:29.356Z,0.70
2022-12-22T13:24:06.145Z,0.53
2022-12-22T13:29:21.023Z,0.60
2022-12-22T13:35:20.243Z,0.73
2022-12-22T13:40:35.098Z,0.63
2022-12-22T13:45:50.927Z,1.07
2022-12-22T13:51:11.322Z,0.70
2022-12-22T13:56:50.440Z,1.03
2022-12-22T14:02:41.344Z,0.60
2022-12-22T14:07:30.297Z,0.70
2022-12-22T14:12:31.130Z,0.60
2022-12-22T14:17:34.376Z,1.07
2022-12-22T14:22:54.091Z,0.50
2022-12-22T14:28:16.307Z,0.60
2022-12-22T14:33:36.267Z,0.73
2022-12-22T14:38:28.831Z,0.80
2022-12-22T14:43:28.627Z,0.50
2022-12-22T14:48:34.650Z,0.70
2022-12-22T14:53:53.945Z,1.20
2022-12-22T14:58:42.415Z,1.00
2022-12-22T15:03:33.881Z,0.73
2022-12-22T15:08:48.421Z,0.80
2022-12-22T15:13:35.276Z,0.80
2022-12-22T15:18:59.493Z,0.83
2022-12-22T15:23:47.268Z,0.77
2022-12-22T15:28:33.092Z,0.70
2022-12-22T15:33:23.172Z,0.80
2022-12-22T15:38:28.518Z,0.83
2022-12-22T15:44:00.016Z,1.00
2022-12-22T15:48:50.384Z,0.80
2022-12-22T15:53:40.542Z,0.90
2022-12-22T15:58:45.939Z,0.90
2022-12-22T16:04:05.708Z,1.20
2022-12-22T16:08:52.339Z,1.10
2022-12-22T16:13:39.976Z,1.40
2022-12-22T16:18:24.137Z,1.83
2022-12-22T16:24:21.908Z,1.60
2022-12-22T16:29:22.353Z,1.80
2022-12-22T16:34:29.807Z,1.97
2022-12-22T16:49:56.202Z,7.17
2022-12-22T16:54:57.963Z,7.83
2022-12-22T16:59:48.293Z,7.90
2022-12-22T17:04:47.727Z,7.53
2022-12-22T17:10:36.413Z,8.83
2022-12-22T17:16:14.443Z,9.43
2022-12-22T17:27:18.154Z,8.37
2022-12-22T17:32:03.391Z,8.67
2022-12-22T17:37:09.447Z,9.23
2022-12-22T17:42:40.704Z,9.00
2022-12-22T17:48:13.806Z,7.30
2022-12-22T18:14:53.569Z,8.63
2022-12-22T18:20:18.877Z,9.40
2022-12-22T18:50:42.646Z,9.50
2022-12-22T19:08:28.339Z,8.30
2022-12-22T19:25:18.808Z,8.17
2022-12-22T19:36:37.907Z,9.87
2022-12-22T19:52:51.174Z,9.77
2022-12-22T19:58:09.181Z,9.23
2022-12-22T20:03:12.266Z,13.60
2022-12-22T20:14:12.013Z,25.93
2022-12-22T20:31:10.945Z,25.70
2022-12-22T20:37:04.539Z,18.50
2022-12-22T20:43:02.588Z,10.27
2022-12-22T20:48:32.904Z,10.30
2022-12-22T21:05:57.237Z,8.00
2022-12-22T21:11:14.846Z,9.27
2022-12-22T21:16:37.910Z,9.97
2022-12-22T21:22:53.296Z,8.60
2022-12-22T21:28:52.825Z,7.77
2022-12-22T21:34:40.440Z,7.73
2022-12-22T21:47:11.799Z,7.53
2022-12-22T21:59:01.842Z,7.63
2022-12-22T22:04:55.200Z,5.73
2022-12-22T22:17:07.628Z,4.83
2022-12-22T22:22:41.273Z,3.90
2022-12-22T22:38:29.036Z,4.33
2022-12-22T22:43:32.636Z,4.40
2022-12-22T22:48:38.088Z,4.50
2022-12-22T22:53:58.508Z,4.27
2022-12-22T22:59:32.185Z,4.20
2022-12-22T23:05:02.082Z,3.90
2022-12-22T23:10:20.719Z,3.53
2022-12-22T23:16:19.984Z,3.43
2022-12-22T23:21:39.689Z,3.60
2022-12-22T23:27:01.625Z,3.33
2022-12-22T23:32:30.319Z,3.40
2022-12-22T23:38:08.104Z,2.70
2022-12-22T23:49:36.267Z,2.67
2022-12-22T23:54:53.613Z,2.47
